Time;durP1;ratioP1;P1;durP2;ratioP2;P2;SDS_P1;SDS_P2;PMS_P1;PMS_P2;Temp;Humidity;BMP_temperature;BMP_pressure;BME280_temperature;BME280_humidity;BME280_pressure;Samples;Min_cycle;Max_cycle;Signal;HPM_P1;HPM_P2
2022/08/19 00:01:25;;;;;;;12.75;9.58;;;;;;;24.71;52.44;100314.87;1674135;83;21049;-78
2022/08/19 00:04:13;;;;;;;11.78;9.43;;;;;;;24.70;52.51;100307.91;1637972;85;21034;-78
2022/08/19 00:06:59;;;;;;;16.40;9.83;;;;;;;24.62;52.65;100299.25;1636070;84;21102;-78
2022/08/19 00:09:44;;;;;;;;;;;;;;;24.58;52.76;100291.20;1689778;83;21069;-78
2022/08/19 00:12:28;;;;;;;16.00;9.65;;;;;;;24.57;53.00;100288.20;1672093;83;20681;-78
2022/08/19 00:15:18;;;;;;;11.05;9.90;;;;;;;24.61;52.80;100303.34;1684716;83;22513;-78
2022/08/19 00:18:03;;;;;;;15.30;10.18;;;;;;;24.59;52.91;100303.95;1676476;83;21331;-78
2022/08/19 00:20:48;;;;;;;11.40;9.65;;;;;;;24.58;53.01;100308.88;1661868;83;21132;-78
2022/08/19 00:23:34;;;;;;;12.85;10.58;;;;;;;24.60;53.06;100310.91;1682076;84;21572;-78
2022/08/19 00:26:20;;;;;;;13.72;11.20;;;;;;;24.55;53.11;100309.95;1674021;83;21012;-78
2022/08/19 00:29:09;;;;;;;13.25;10.10;;;;;;;24.58;53.23;100315.48;1683388;83;21009;-78
2022/08/19 00:31:55;;;;;;;11.33;9.75;;;;;;;24.56;53.30;100312.96;1685134;83;20957;-79
2022/08/19 00:34:40;;;;;;;;;;;;;;;24.57;53.36;100314.64;1686880;83;20965;-78
2022/08/19 00:37:25;;;;;;;10.93;9.90;;;;;;;24.57;53.63;100310.67;1682636;83;20144;-78
2022/08/19 00:40:12;;;;;;;14.30;9.70;;;;;;;24.56;53.44;100305.03;1655109;85;20915;-78
2022/08/19 00:42:57;;;;;;;10.95;9.78;;;;;;;24.53;53.55;100307.91;1628875;86;20977;-78
2022/08/19 00:45:43;;;;;;;11.28;10.23;;;;;;;24.54;53.63;100306.11;1634773;86;21439;-78
2022/08/19 00:48:28;;;;;;;13.45;9.70;;;;;;;24.55;53.66;100317.89;1623495;86;21610;-78
2022/08/19 00:51:12;;;;;;;13.15;9.78;;;;;;;24.52;53.74;100320.77;1684926;83;21960;-78
2022/08/19 00:54:00;;;;;;;13.20;10.30;;;;;;;24.52;53.84;100317.28;1640500;85;20938;-78
2022/08/19 00:56:46;;;;;;;11.73;10.53;;;;;;;24.54;53.90;100312.72;1681362;83;20980;-78
2022/08/19 00:59:31;;;;;;;14.93;10.53;;;;;;;24.58;53.92;100308.88;1685663;83;21425;-78
2022/08/19 01:02:17;;;;;;;14.35;10.55;;;;;;;24.55;53.97;100308.63;1685409;83;20937;-78
2022/08/19 01:05:09;;;;;;;10.93;9.83;;;;;;;24.55;54.06;100301.19;1682400;83;20977;-78
2022/08/19 01:07:59;;;;;;;14.33;9.53;;;;;;;24.55;54.15;100299.38;1686285;83;20977;-78
2022/08/19 01:10:49;;;;;;;13.13;10.90;;;;;;;24.56;54.21;100294.94;1682998;84;20958;-78
2022/08/19 01:13:36;;;;;;;13.78;10.80;;;;;;;24.52;54.30;100292.17;1662317;85;20967;-78
2022/08/19 01:16:24;;;;;;;12.98;9.98;;;;;;;24.49;54.39;100293.25;1672636;84;21486;-78
2022/08/19 01:19:32;;;;;;;12.85;10.82;;;;;;;24.47;54.52;100294.34;1675389;83;20949;-78
2022/08/19 01:22:46;;;;;;;10.95;9.83;;;;;;;24.46;54.58;100287.37;1660885;83;20970;-78
2022/08/19 01:25:49;;;;;;;10.40;9.38;;;;;;;24.47;54.63;100285.09;1679497;84;20958;-78
2022/08/19 01:28:37;;;;;;;14.35;10.13;;;;;;;24.41;54.70;100279.83;1671681;83;20969;-78
2022/08/19 01:31:26;;;;;;;17.45;11.38;;;;;;;24.38;54.85;100286.20;1680142;83;20981;-78
2022/08/19 01:34:11;;;;;;;14.07;9.78;;;;;;;24.38;54.90;100284.87;1670780;83;20934;-78
2022/08/19 01:36:56;;;;;;;11.93;10.68;;;;;;;24.40;54.99;100288.73;1680809;83;20918;-78
2022/08/19 01:39:42;;;;;;;13.58;10.00;;;;;;;24.35;54.96;100286.44;1674044;84;20934;-78
2022/08/19 01:42:27;;;;;;;11.63;9.88;;;;;;;24.28;55.15;100289.20;1678943;83;20957;-78
2022/08/19 01:45:12;;;;;;;14.80;10.60;;;;;;;24.27;55.23;100286.20;1666595;84;21044;-78
2022/08/19 01:47:58;;;;;;;12.33;10.05;;;;;;;24.24;55.28;100285.09;1681834;84;21047;-78
2022/08/19 01:50:43;;;;;;;12.47;10.72;;;;;;;24.23;55.37;100279.44;1679856;83;21061;-78
2022/08/19 01:53:29;;;;;;;14.83;10.85;;;;;;;24.26;55.41;100277.07;1672081;83;21061;-78
2022/08/19 01:56:15;;;;;;;15.15;10.03;;;;;;;24.26;55.48;100283.20;1673493;83;21639;-78
2022/08/19 01:59:05;;;;;;;12.00;10.80;;;;;;;24.21;55.52;100282.69;1678038;84;21065;-78
2022/08/19 02:01:49;;;;;;;15.55;11.00;;;;;;;24.19;55.62;100278.00;1669794;83;21116;-78
2022/08/19 02:04:37;;;;;;;12.50;10.13;;;;;;;24.18;55.66;100275.00;1675333;82;21109;-78
2022/08/19 02:07:22;;;;;;;11.43;10.32;;;;;;;24.18;55.73;100263.59;1665339;84;21820;-78
2022/08/19 02:10:12;;;;;;;13.72;10.90;;;;;;;24.15;55.75;100261.19;1680468;83;20953;-78
2022/08/19 02:12:59;;;;;;;13.98;10.68;;;;;;;24.08;55.85;100258.17;1681170;83;20977;-78
2022/08/19 02:15:43;;;;;;;13.05;10.60;;;;;;;24.02;55.95;100258.17;1687375;83;21064;-78
2022/08/19 02:18:29;;;;;;;15.50;11.12;;;;;;;24.01;56.03;100253.84;1687018;83;21088;-78
2022/08/19 02:21:16;;;;;;;11.85;10.72;;;;;;;24.03;56.09;100250.61;1688835;83;21159;-78
2022/08/19 02:24:01;;;;;;;12.95;10.10;;;;;;;24.05;56.10;100247.37;1679894;83;21536;-78
2022/08/19 02:26:46;;;;;;;12.63;11.15;;;;;;;24.00;56.17;100241.60;1684193;83;21104;-78
2022/08/19 02:29:31;;;;;;;17.27;10.75;;;;;;;24.01;56.23;100231.39;1687366;83;21068;-78
2022/08/19 02:32:22;;;;;;;11.22;10.25;;;;;;;24.02;56.28;100226.47;1687310;83;21647;-78
2022/08/19 02:35:06;;;;;;;12.45;11.22;;;;;;;24.02;56.32;100226.95;1684103;83;21072;-78
2022/08/19 02:41:02;;;;;;;13.90;10.70;;;;;;;23.94;56.65;100223.59;1681267;83;20139;-78
2022/08/19 02:43:47;;;;;;;12.93;10.48;;;;;;;23.87;56.48;100219.77;1686509;83;20969;-78
2022/08/19 02:46:33;;;;;;;14.35;10.60;;;;;;;23.86;56.59;100215.93;1699379;83;20942;-78
2022/08/19 02:49:18;;;;;;;13.78;11.68;;;;;;;23.86;56.59;100206.20;1689488;83;20913;-78
2022/08/19 02:52:03;;;;;;;12.68;10.65;;;;;;;23.79;56.63;100203.68;1690691;83;20961;-78
2022/08/19 02:54:49;;;;;;;14.07;11.18;;;;;;;23.74;56.72;100208.47;1688236;83;20917;-78
2022/08/19 02:57:34;;;;;;;11.68;10.48;;;;;;;23.70;56.84;100221.07;1692601;83;20933;-78
2022/08/19 03:00:19;;;;;;;18.30;10.43;;;;;;;23.72;56.88;100220.95;1689758;83;20957;-78
2022/08/19 03:03:03;;;;;;;11.50;10.43;;;;;;;23.69;56.92;100219.87;1697178;83;20941;-78
2022/08/19 03:05:48;;;;;;;13.05;10.30;;;;;;;23.67;56.99;100222.63;1695003;83;20970;-78
2022/08/19 03:08:33;;;;;;;12.40;10.45;;;;;;;23.64;57.04;100213.62;1687397;83;21088;-78
2022/08/19 03:11:23;;;;;;;13.18;10.85;;;;;;;23.64;57.10;100210.98;1677146;84;21446;-78
2022/08/19 03:14:10;;;;;;;14.43;11.00;;;;;;;23.57;57.18;100207.13;1684156;83;21585;-78
2022/08/19 03:16:55;;;;;;;11.68;10.58;;;;;;;23.52;57.22;100215.84;1686742;84;20957;-78
2022/08/19 03:19:40;;;;;;;14.25;10.85;;;;;;;23.49;57.29;100210.80;1678195;83;20973;-78
2022/08/19 03:22:25;;;;;;;14.15;10.35;;;;;;;23.45;57.37;100218.58;1679010;83;20926;-78
2022/08/19 03:25:11;;;;;;;12.07;10.72;;;;;;;23.45;57.46;100217.27;1678863;83;20981;-78
2022/08/19 03:27:57;;;;;;;14.25;11.08;;;;;;;23.44;57.48;100208.98;1679592;83;20926;-78
2022/08/19 03:30:46;;;;;;;12.28;11.20;;;;;;;23.41;57.52;100207.42;1677392;84;20958;-78
2022/08/19 03:33:33;;;;;;;13.20;11.85;;;;;;;23.40;57.56;100204.41;1674733;83;20958;-78
2022/08/19 03:36:23;;;;;;;12.75;11.40;;;;;;;23.38;57.68;100213.44;1677690;85;21872;-78
2022/08/19 03:39:09;;;;;;;17.17;11.25;;;;;;;23.32;57.74;100216.06;1678189;84;20930;-78
2022/08/19 03:42:02;;;;;;;12.80;11.53;;;;;;;23.30;57.86;100214.48;1677948;83;20933;-78
2022/08/19 03:44:45;;;;;;;12.68;11.30;;;;;;;23.30;57.92;100215.81;1671444;83;20930;-78
2022/08/19 03:47:30;;;;;;;13.08;11.78;;;;;;;23.30;57.93;100216.66;1681874;83;20934;-78
2022/08/19 03:50:16;;;;;;;12.78;11.15;;;;;;;23.24;58.00;100224.19;1683763;84;20909;-78
2022/08/19 03:53:00;;;;;;;13.95;11.18;;;;;;;23.21;58.15;100225.25;1684262;83;20969;-78
2022/08/19 03:55:45;;;;;;;12.90;11.60;;;;;;;23.20;58.21;100218.30;1677464;84;20950;-78
2022/08/19 03:58:30;;;;;;;13.45;12.05;;;;;;;23.24;58.27;100221.55;1680065;83;20914;-78
2022/08/19 04:01:20;;;;;;;13.68;12.33;;;;;;;23.28;58.29;100215.08;1671029;84;20938;-78
2022/08/19 04:04:05;;;;;;;18.92;12.33;;;;;;;23.25;58.34;100211.36;1675338;83;20953;-78
2022/08/19 04:06:51;;;;;;;13.50;12.20;;;;;;;23.26;58.39;100209.92;1680174;84;21422;-78
2022/08/19 04:09:36;;;;;;;13.65;12.25;;;;;;;23.25;58.45;100200.33;1679777;83;21442;-78
2022/08/19 04:12:21;;;;;;;12.93;11.68;;;;;;;23.26;58.53;100192.77;1677986;84;21513;-78
2022/08/19 04:15:08;;;;;;;13.65;12.33;;;;;;;23.27;58.54;100193.61;1677794;85;21440;-78
2022/08/19 04:17:52;;;;;;;;;;;;;;;23.19;58.61;100192.03;1682346;83;20929;-78
2022/08/19 04:20:45;;;;;;;16.27;11.70;;;;;;;23.13;58.90;100192.01;1678387;84;20134;-78
2022/08/19 04:23:30;;;;;;;13.53;12.18;;;;;;;23.09;58.71;100205.06;1680621;82;20953;-78
2022/08/19 04:26:19;;;;;;;13.35;11.95;;;;;;;23.07;58.82;100210.93;1679987;83;20921;-78
2022/08/19 04:29:09;;;;;;;17.95;12.23;;;;;;;23.04;58.91;100217.27;1679488;83;20958;-78
2022/08/19 04:31:56;;;;;;;18.60;12.58;;;;;;;23.04;58.99;100216.43;1657400;83;20937;-78
2022/08/19 04:34:42;;;;;;;14.23;11.83;;;;;;;23.04;59.03;100227.82;1676274;84;20946;-78
2022/08/19 04:37:31;;;;;;;13.88;12.58;;;;;;;23.03;59.11;100221.34;1679963;83;21577;-78
2022/08/19 04:43:18;;;;;;;14.03;11.95;;;;;;;23.06;59.25;100216.68;1679014;83;21763;-78
2022/08/19 04:46:11;;;;;;;12.80;11.18;;;;;;;23.08;59.28;100218.73;1668818;83;20966;-78
2022/08/19 04:48:56;;;;;;;13.43;11.75;;;;;;;23.11;59.40;100221.62;1675693;83;20982;-78
2022/08/19 04:51:44;;;;;;;14.15;11.68;;;;;;;23.15;59.46;100228.83;1677517;84;21509;-78
2022/08/19 04:54:29;;;;;;;16.40;12.00;;;;;;;23.17;59.49;100220.32;1676943;84;21521;-78
2022/08/19 04:57:15;;;;;;;12.85;11.70;;;;;;;23.22;59.54;100221.66;1683911;83;21483;-78
2022/08/19 04:59:59;;;;;;;13.38;12.07;;;;;;;23.29;59.60;100222.05;1680506;83;20968;-78
2022/08/19 05:02:44;;;;;;;13.05;11.65;;;;;;;23.34;59.64;100216.78;1667538;83;21301;-78
2022/08/19 05:05:31;;;;;;;13.50;12.10;;;;;;;23.40;59.66;100212.33;1681781;84;20918;-78
2022/08/19 05:08:20;;;;;;;12.55;11.30;;;;;;;23.49;59.69;100213.91;1670808;83;20967;-78
2022/08/19 05:11:22;;;;;;;13.75;12.28;;;;;;;23.58;59.77;100217.20;1677575;84;20962;-78
2022/08/19 05:14:09;;;;;;;14.28;12.18;;;;;;;23.68;59.77;100210.27;1677164;84;21975;-78
2022/08/19 05:16:53;;;;;;;14.55;12.10;;;;;;;23.76;59.87;100225.04;1670949;83;20994;-78
2022/08/19 05:22:44;;;;;;;12.30;10.40;;;;;;;23.98;59.97;100227.67;1677390;83;20937;-78
2022/08/19 05:25:29;;;;;;;14.93;10.80;;;;;;;24.27;59.94;100226.75;1672608;83;20969;-78
2022/08/19 05:28:14;;;;;;;16.97;11.30;;;;;;;24.41;59.81;100228.30;1679765;83;20933;-78
2022/08/19 05:30:59;;;;;;;12.35;11.12;;;;;;;24.54;59.83;100225.48;1677525;82;20953;-78
2022/08/19 05:33:44;;;;;;;11.68;10.35;;;;;;;24.63;59.87;100226.91;1679912;84;20921;-78
2022/08/19 05:36:34;;;;;;;12.28;10.35;;;;;;;24.88;59.86;100212.53;1679042;84;20995;-78
2022/08/19 05:39:21;;;;;;;12.95;11.12;;;;;;;24.98;59.70;100213.94;1679465;83;20945;-79
2022/08/19 05:42:09;;;;;;;13.25;11.35;;;;;;;25.04;59.67;100208.15;1679615;83;20937;-79
2022/08/19 05:44:55;;;;;;;11.57;10.38;;;;;;;25.01;59.60;100213.20;1672389;83;20934;-78
2022/08/19 05:47:40;;;;;;;11.10;10.08;;;;;;;25.03;59.70;100215.73;1675748;83;20966;-79
2022/08/19 05:50:26;;;;;;;10.45;9.45;;;;;;;25.29;59.73;100220.19;1673527;84;20949;-79
2022/08/19 05:53:11;;;;;;;15.25;10.25;;;;;;;25.69;59.67;100209.23;1678751;84;20941;-79
2022/08/19 05:55:56;;;;;;;10.25;9.25;;;;;;;26.08;59.47;100200.12;1669910;83;21845;-79
2022/08/19 05:58:41;;;;;;;15.65;9.88;;;;;;;26.40;59.26;100199.14;1671549;83;20915;-78
2022/08/19 06:01:27;;;;;;;14.80;10.80;;;;;;;26.66;59.08;100189.67;1679699;82;20931;-79
2022/08/19 06:04:13;;;;;;;11.00;9.83;;;;;;;26.82;58.97;100182.00;1682282;83;20945;-78
2022/08/19 06:06:58;;;;;;;9.93;8.95;;;;;;;27.04;58.86;100188.36;1679839;83;20937;-78
2022/08/19 06:09:43;;;;;;;11.88;9.53;;;;;;;27.25;58.66;100179.41;1672064;83;20973;-78
2022/08/19 06:12:33;;;;;;;9.85;8.95;;;;;;;27.53;58.56;100182.50;1679382;84;20942;-79
2022/08/19 06:15:17;;;;;;;9.95;8.88;;;;;;;27.91;58.42;100173.57;1677011;83;21513;-80
2022/08/19 06:18:01;;;;;;;11.95;10.43;;;;;;;28.24;58.13;100176.63;1677559;83;21458;-80
2022/08/19 06:20:47;;;;;;;9.78;8.80;;;;;;;28.36;57.87;100185.25;1679384;83;20926;-80
2022/08/19 06:23:31;;;;;;;13.25;8.98;;;;;;;28.54;57.76;100184.29;1679906;84;20961;-79
2022/08/19 06:26:18;;;;;;;14.10;9.48;;;;;;;28.77;57.60;100187.81;1679114;83;21793;-80
2022/08/19 06:29:06;;;;;;;15.85;9.63;;;;;;;29.04;57.29;100190.42;1679132;83;20973;-79
2022/08/19 06:31:54;;;;;;;12.30;8.75;;;;;;;29.26;57.04;100197.06;1677372;83;20998;-79
2022/08/19 06:34:39;;;;;;;10.23;8.73;;;;;;;29.38;56.83;100198.98;1680093;82;20982;-79
2022/08/19 06:37:24;;;;;;;10.40;8.90;;;;;;;29.59;56.61;100194.17;1677205;83;20934;-79
2022/08/19 06:40:12;;;;;;;12.37;8.27;;;;;;;29.76;55.90;100185.75;1679270;83;20969;-79
2022/08/19 06:42:59;;;;;;;12.00;8.88;;;;;;;29.81;56.08;100178.11;1678160;83;20969;-79
2022/08/19 06:45:44;;;;;;;16.17;9.05;;;;;;;29.87;55.73;100190.31;1680777;82;21540;-79
2022/08/19 06:48:28;;;;;;;20.00;9.03;;;;;;;30.11;55.56;100180.28;1678502;83;20895;-80
2022/08/19 06:51:18;;;;;;;10.90;8.35;;;;;;;30.60;55.21;100162.58;1678934;84;20938;-79
2022/08/19 06:54:04;;;;;;;9.73;7.95;;;;;;;31.10;54.68;100156.24;1684611;83;21402;-79
2022/08/19 06:56:48;;;;;;;9.97;8.87;;;;;;;31.70;54.26;100163.02;1679890;83;20912;-79
2022/08/19 06:59:33;;;;;;;8.88;7.92;;;;;;;32.02;53.39;100170.91;1682346;83;20945;-79
2022/08/19 07:02:20;;;;;;;9.50;7.62;;;;;;;32.27;53.15;100173.47;1683594;83;21007;-79
2022/08/19 07:05:06;;;;;;;18.07;7.95;;;;;;;32.39;52.98;100173.40;1678091;83;20977;-80
2022/08/19 07:07:51;;;;;;;9.03;8.20;;;;;;;32.77;52.29;100172.98;1677253;83;20995;-80
2022/08/19 07:10:36;;;;;;;9.13;8.20;;;;;;;33.16;51.99;100163.47;1679962;83;20970;-80
2022/08/19 07:13:23;;;;;;;11.30;8.30;;;;;;;33.76;51.17;100170.05;1675671;84;20942;-80
2022/08/19 07:16:11;;;;;;;8.48;7.42;;;;;;;34.44;50.97;100166.66;1676076;83;20950;-80
2022/08/19 07:18:56;;;;;;;8.20;7.20;;;;;;;35.04;49.86;100168.08;1675590;83;21406;-77
2022/08/19 07:21:41;;;;;;;7.97;7.30;;;;;;;35.14;49.45;100176.13;1675021;84;20954;-77
2022/08/19 07:24:27;;;;;;;8.45;7.65;;;;;;;34.69;49.09;100168.48;1675729;84;20981;-81
2022/08/19 07:27:14;;;;;;;;;;;;;;;34.65;48.35;100172.57;1679084;83;21528;-74
2022/08/19 07:29:59;;;;;;;13.85;9.15;;;;;;;34.55;46.97;100175.56;1669023;84;20234;-73
2022/08/19 07:32:44;;;;;;;8.75;7.92;;;;;;;34.91;47.25;100177.37;1669297;83;21608;-73
2022/08/19 07:35:31;;;;;;;7.92;7.12;;;;;;;35.12;45.53;100183.55;1669068;83;22458;-73
2022/08/19 07:38:16;;;;;;;8.95;8.08;;;;;;;35.01;46.53;100185.94;1669163;84;21030;-73
2022/08/19 07:41:02;;;;;;;8.45;7.70;;;;;;;34.56;46.13;100193.85;1676304;83;21048;-73
2022/08/19 07:43:49;;;;;;;9.58;7.75;;;;;;;34.10;45.93;100194.97;1676678;83;21133;-73
2022/08/19 07:46:38;;;;;;;9.50;8.53;;;;;;;33.83;45.88;100207.70;1672276;83;21093;-73
2022/08/19 07:49:24;;;;;;;11.83;8.20;;;;;;;33.70;45.61;100207.00;1675972;83;21319;-73
2022/08/19 07:52:10;;;;;;;8.53;7.65;;;;;;;33.53;44.90;100203.66;1678202;83;21089;-72
2022/08/19 07:54:55;;;;;;;8.33;7.60;;;;;;;33.31;45.17;100201.85;1676713;83;21502;-72
2022/08/19 07:57:40;;;;;;;11.87;7.53;;;;;;;33.20;45.00;100200.95;1678954;83;21052;-73
2022/08/19 08:00:25;;;;;;;8.63;7.72;;;;;;;33.15;44.57;100204.67;1677051;83;21116;-72
2022/08/19 08:03:12;;;;;;;8.43;7.35;;;;;;;33.08;44.61;100207.24;1674571;83;21124;-72
2022/08/19 08:09:15;;;;;;;11.12;7.87;;;;;;;33.81;44.29;100213.76;1676488;83;21080;-73
2022/08/19 08:12:06;;;;;;;9.33;7.85;;;;;;;34.08;43.46;100205.05;1677665;83;21061;-73
2022/08/19 08:14:55;;;;;;;11.03;7.72;;;;;;;34.27;43.45;100210.35;1678525;83;21044;-73
2022/08/19 08:17:40;;;;;;;11.10;8.43;;;;;;;34.49;43.23;100211.23;1680097;83;21037;-74
2022/08/19 08:20:25;;;;;;;9.13;7.72;;;;;;;34.75;42.87;100211.52;1677733;84;21065;-74
2022/08/19 08:23:23;;;;;;;9.20;7.80;;;;;;;34.82;42.33;100217.00;1679405;84;21004;-78
2022/08/19 08:26:08;;;;;;;8.80;7.83;;;;;;;34.77;42.46;100213.52;1681675;83;21124;-77
2022/08/19 08:28:57;;;;;;;9.97;8.60;;;;;;;34.78;42.22;100198.22;1680553;83;21014;-77
2022/08/19 08:31:44;;;;;;;10.63;7.45;;;;;;;34.97;41.86;100196.75;1680678;84;21381;-76
2022/08/19 08:34:29;;;;;;;8.93;7.87;;;;;;;35.23;41.83;100199.67;1682318;84;21183;-75
2022/08/19 08:37:14;;;;;;;8.57;7.67;;;;;;;35.67;41.55;100200.72;1680854;83;21059;-75
2022/08/19 08:40:06;;;;;;;9.73;8.00;;;;;;;36.07;41.37;100213.05;1678358;84;21044;-75
2022/08/19 08:43:02;;;;;;;12.18;9.00;;;;;;;36.32;41.05;100202.63;1678543;84;21151;-76
2022/08/19 08:45:52;;;;;;;12.85;9.13;;;;;;;36.68;40.69;100198.25;1678533;83;21517;-75
2022/08/19 08:48:54;;;;;;;11.25;8.65;;;;;;;36.88;40.31;100191.05;1677809;84;21056;-75
2022/08/19 08:51:50;;;;;;;14.85;8.88;;;;;;;37.08;39.64;100191.04;1679214;83;21072;-74
2022/08/19 08:54:41;;;;;;;;;;;;;;;37.03;39.42;100198.40;1680408;83;21125;-76
2022/08/19 08:57:54;;;;;;;8.85;7.78;;;;;;;36.40;39.83;100192.99;1677453;84;20234;-76
2022/08/19 09:00:43;;;;;;;13.10;9.45;;;;;;;35.76;39.99;100197.36;1676365;83;21057;-77
2022/08/19 09:03:29;;;;;;;12.05;8.70;;;;;;;35.09;39.91;100194.70;1676618;84;20992;-76
2022/08/19 09:06:40;;;;;;;11.22;9.03;;;;;;;34.43;39.73;100202.59;1679596;84;21084;-76
2022/08/19 09:09:42;;;;;;;10.93;9.80;;;;;;;34.07;39.89;100199.36;1678989;83;21088;-76
2022/08/19 09:12:51;;;;;;;9.48;8.68;;;;;;;33.75;39.79;100205.94;1686526;83;21092;-75
2022/08/19 09:15:47;;;;;;;16.25;9.83;;;;;;;33.43;39.80;100203.08;1692007;83;21051;-75
2022/08/19 09:18:46;;;;;;;9.68;8.60;;;;;;;33.08;39.77;100201.05;1659877;85;21434;-75
2022/08/19 09:21:32;;;;;;;16.75;9.30;;;;;;;32.89;39.84;100199.18;1688360;83;21025;-75
2022/08/19 09:24:17;;;;;;;11.47;9.50;;;;;;;32.70;39.77;100195.63;1688547;83;21437;-75
2022/08/19 09:27:02;;;;;;;10.72;9.73;;;;;;;32.48;39.83;100195.09;1688661;83;20981;-76
2022/08/19 09:29:50;;;;;;;10.88;9.78;;;;;;;32.35;39.89;100202.86;1685796;83;20945;-76
2022/08/19 09:32:35;;;;;;;11.33;9.93;;;;;;;32.27;40.02;100202.91;1688547;83;20960;-76
2022/08/19 09:35:22;;;;;;;10.80;9.68;;;;;;;32.23;40.09;100201.11;1688208;83;20965;-76
2022/08/19 09:38:07;;;;;;;14.43;9.98;;;;;;;32.20;40.11;100201.42;1687417;83;20969;-76
2022/08/19 09:40:52;;;;;;;14.53;10.40;;;;;;;32.19;40.21;100197.08;1688707;83;20929;-76
2022/08/19 09:43:37;;;;;;;19.12;9.93;;;;;;;32.15;40.23;100188.57;1693103;83;20944;-76
2022/08/19 09:46:25;;;;;;;11.90;9.83;;;;;;;32.06;40.28;100187.44;1692394;83;20933;-76
2022/08/19 09:49:10;;;;;;;14.60;9.10;;;;;;;31.96;40.45;100192.16;1693956;82;20999;-76
2022/08/19 09:51:55;;;;;;;12.63;10.17;;;;;;;31.98;40.57;100190.98;1689595;83;22236;-76
2022/08/19 09:54:41;;;;;;;10.85;9.75;;;;;;;32.03;40.62;100188.63;1685889;83;21012;-75
2022/08/19 09:57:26;;;;;;;12.40;9.73;;;;;;;32.05;40.66;100189.28;1656988;84;21717;-75
2022/08/19 10:00:12;;;;;;;11.10;10.00;;;;;;;32.08;40.75;100194.79;1687440;83;21556;-75
2022/08/19 10:02:57;;;;;;;13.05;10.25;;;;;;;32.09;40.81;100193.78;1692317;83;20969;-75
2022/08/19 10:05:49;;;;;;;13.22;9.60;;;;;;;32.09;40.86;100192.45;1690532;83;21068;-75
2022/08/19 10:08:37;;;;;;;16.27;10.08;;;;;;;32.11;40.93;100191.77;1676609;83;21116;-76
2022/08/19 10:11:22;;;;;;;15.70;10.82;;;;;;;32.09;40.94;100183.08;1687403;83;21728;-76
2022/08/19 10:14:07;;;;;;;11.65;10.50;;;;;;;32.09;41.04;100185.25;1676462;83;21045;-76
2022/08/19 10:16:53;;;;;;;11.53;10.35;;;;;;;32.14;41.05;100183.39;1669996;84;21124;-76
2022/08/19 10:19:38;;;;;;;14.85;10.40;;;;;;;32.17;41.09;100188.40;1672886;84;21056;-76
2022/08/19 10:22:23;;;;;;;16.12;10.28;;;;;;;32.15;41.10;100191.75;1671689;84;21081;-76
2022/08/19 10:25:09;;;;;;;20.00;11.23;;;;;;;32.15;41.12;100193.92;1671371;84;21056;-76
2022/08/19 10:27:54;;;;;;;18.17;10.18;;;;;;;32.18;41.12;100183.37;1654543;84;20990;-76
2022/08/19 10:30:41;;;;;;;13.75;9.63;;;;;;;32.19;41.13;100189.89;1653107;84;21160;-76
2022/08/19 10:33:27;;;;;;;17.82;10.35;;;;;;;32.22;41.18;100184.73;1675420;83;21616;-76
2022/08/19 10:36:18;;;;;;;13.05;10.58;;;;;;;32.27;41.22;100178.82;1672383;84;21675;-76
2022/08/19 10:39:09;;;;;;;11.97;10.95;;;;;;;32.31;41.23;100172.11;1674488;83;21084;-76
2022/08/19 10:41:56;;;;;;;15.55;11.12;;;;;;;32.35;41.25;100172.09;1674554;83;21107;-76
2022/08/19 10:44:41;;;;;;;19.73;9.53;;;;;;;32.38;41.25;100169.89;1674843;83;21123;-76
2022/08/19 10:47:26;;;;;;;13.98;9.13;;;;;;;32.41;41.25;100164.69;1673756;84;21081;-76
2022/08/19 10:53:15;;;;;;;17.40;10.08;;;;;;;32.44;40.98;100141.08;1676491;83;21121;-76
2022/08/19 10:59:04;;;;;;;10.38;9.38;;;;;;;32.42;40.67;100133.73;1670408;83;21124;-75
2022/08/19 11:01:51;;;;;;;12.73;8.73;;;;;;;32.42;40.91;100140.93;1669524;83;21105;-75
2022/08/19 11:04:38;;;;;;;15.98;8.63;;;;;;;32.42;40.86;100132.39;1668254;84;21076;-75
2022/08/19 11:07:26;;;;;;;14.05;8.73;;;;;;;32.44;40.85;100133.55;1676345;83;20934;-75
2022/08/19 11:10:12;;;;;;;23.25;9.28;;;;;;;32.51;40.73;100133.17;1677718;82;20950;-75
2022/08/19 11:12:57;;;;;;;15.38;8.65;;;;;;;32.52;40.60;100135.67;1677604;83;20933;-75
2022/08/19 11:15:42;;;;;;;8.98;8.13;;;;;;;32.50;40.50;100135.02;1678569;83;20977;-74
2022/08/19 11:18:28;;;;;;;9.40;8.43;;;;;;;32.53;40.55;100136.51;1677912;83;21026;-75
2022/08/19 11:21:23;;;;;;;9.97;7.90;;;;;;;32.52;40.46;100128.15;1675867;83;20981;-75
2022/08/19 11:24:19;;;;;;;8.78;7.85;;;;;;;32.54;40.33;100134.16;1679466;83;20966;-75
2022/08/19 11:27:08;;;;;;;9.53;8.10;;;;;;;32.56;40.27;100134.31;1679124;83;20938;-75
2022/08/19 11:29:53;;;;;;;8.00;7.30;;;;;;;32.58;40.20;100128.78;1679243;84;20938;-77
2022/08/19 11:32:39;;;;;;;9.43;7.97;;;;;;;32.60;40.07;100130.77;1681238;83;20970;-74
2022/08/19 11:35:24;;;;;;;11.63;8.25;;;;;;;32.59;40.04;100127.77;1680767;84;20946;-74
2022/08/19 11:38:08;;;;;;;11.53;7.72;;;;;;;32.64;40.04;100133.42;1680890;83;20920;-74
2022/08/19 11:41:02;;;;;;;14.05;8.33;;;;;;;32.68;39.93;100132.05;1680182;83;20966;-74
2022/08/19 11:43:47;;;;;;;8.25;7.55;;;;;;;32.69;39.79;100135.05;1678408;83;20966;-75
2022/08/19 11:46:32;;;;;;;8.98;7.58;;;;;;;32.71;39.86;100132.20;1679493;84;20978;-75
2022/08/19 11:49:19;;;;;;;10.28;8.05;;;;;;;32.74;39.74;100137.20;1674943;83;20966;-75
2022/08/19 11:52:04;;;;;;;13.35;7.58;;;;;;;32.78;39.63;100138.00;1679276;83;20962;-75
2022/08/19 11:54:49;;;;;;;13.95;7.55;;;;;;;32.80;39.53;100137.31;1679210;83;21408;-75
2022/08/19 11:57:34;;;;;;;9.23;8.25;;;;;;;32.81;39.51;100133.62;1678364;83;21105;-74
2022/08/19 12:00:19;;;;;;;13.43;8.10;;;;;;;32.81;39.46;100143.00;1675194;83;21053;-74
2022/08/19 12:03:04;;;;;;;10.90;8.30;;;;;;;32.82;39.36;100144.66;1678559;83;21088;-74
2022/08/19 12:05:50;;;;;;;8.73;7.72;;;;;;;32.83;39.25;100149.00;1679671;83;21059;-74
2022/08/19 12:08:35;;;;;;;13.20;7.58;;;;;;;32.85;39.23;100146.15;1678043;83;21105;-75
2022/08/19 12:11:21;;;;;;;13.08;8.03;;;;;;;32.86;39.23;100149.98;1678324;84;21144;-75
2022/08/19 12:14:10;;;;;;;9.58;7.92;;;;;;;32.88;39.19;100151.14;1676701;83;21059;-75
2022/08/19 12:16:55;;;;;;;12.70;8.00;;;;;;;32.88;39.09;100155.16;1677675;83;21073;-75
2022/08/19 12:19:40;;;;;;;14.70;8.13;;;;;;;32.88;39.04;100160.52;1677249;83;21112;-75
2022/08/19 12:22:25;;;;;;;8.75;7.95;;;;;;;32.85;39.00;100160.88;1676315;83;21144;-75
2022/08/19 12:25:12;;;;;;;12.45;7.75;;;;;;;32.80;38.96;100168.11;1677893;83;21081;-75
2022/08/19 12:27:58;;;;;;;10.38;7.03;;;;;;;32.81;38.95;100167.09;1677483;83;21044;-75
2022/08/19 12:30:43;;;;;;;14.50;6.67;;;;;;;32.83;38.84;100164.24;1677725;83;21410;-75
2022/08/19 12:33:28;;;;;;;8.95;6.78;;;;;;;32.80;38.66;100168.11;1676501;83;21572;-75
2022/08/19 12:36:15;;;;;;;7.67;6.92;;;;;;;32.79;38.62;100174.98;1675498;84;21053;-75
2022/08/19 12:39:00;;;;;;;11.38;6.87;;;;;;;32.80;38.54;100172.13;1676803;83;21073;-75
2022/08/19 12:41:46;;;;;;;8.38;6.53;;;;;;;32.83;38.49;100179.80;1677668;83;21074;-77
2022/08/19 12:44:31;;;;;;;11.75;6.78;;;;;;;32.84;38.39;100173.95;1675172;83;21116;-73
2022/08/19 12:47:17;;;;;;;14.23;6.80;;;;;;;32.85;38.36;100170.25;1673895;83;21109;-75
2022/08/19 12:50:03;;;;;;;11.73;6.95;;;;;;;32.89;38.26;100180.94;1676458;82;21043;-74
2022/08/19 12:52:48;;;;;;;14.15;6.53;;;;;;;32.85;38.23;100184.48;1674983;83;21128;-73
2022/08/19 12:55:34;;;;;;;9.18;6.60;;;;;;;32.85;38.20;100181.80;1674243;83;21069;-74
2022/08/19 12:58:19;;;;;;;11.53;6.53;;;;;;;32.82;38.10;100182.16;1678735;82;21121;-73
2022/08/19 13:01:14;;;;;;;9.73;7.30;;;;;;;32.81;38.08;100184.51;1675453;83;21052;-77
2022/08/19 13:03:59;;;;;;;10.08;6.75;;;;;;;32.81;38.04;100185.02;1676928;84;21501;-73
2022/08/19 13:06:44;;;;;;;7.15;6.55;;;;;;;32.80;38.06;100181.50;1657077;85;21006;-75